Natures Way Challenger — WDF7294 — position and weather

sailwx.info

Track history (hours):
 
Tides and Currents Weather Stations Pressure Air Temp Water Temp Dewpoint Dewpoint Depression Visibility Wind Speed Wind Dir Waves Ship Positions

Natures Way Challenger

Owner: Natures Way Marine, LLC, Theodore, AL. More information available from US FCC via Universal Licensing System and Coast Guard Vessel Documentation Center.

Last reported at 2015-Jan-25 17:32 UTC. Time now 2015-Jan-26 10:31 UTC.
Position N 30°01' W 089°53'.

Length 14 m.

Type: Towing. MMSI: 367483050.

Date/timePositionNaut miles runAvg speedWind from/ knotsBaromVisibWave heightAir tempDewpointWater temp
2015-Jan-25 17:32N 30°01' W 089°53'3 2.6
2015-Jan-25 16:32N 30°00' W 089°56'0 0.0
2015-Jan-25 15:32N 30°00' W 089°56'1 0.9
2015-Jan-25 14:19N 30°00' W 089°57'1 1.2
2015-Jan-25 13:28N 29°60' W 089°59'0 0.0
2015-Jan-25 12:33N 29°60' W 089°59'0 0.0
2015-Jan-25 11:33N 29°60' W 089°59'0 0.0
2015-Jan-25 10:32N 29°60' W 089°59'0 0.0
2015-Jan-25 09:33N 29°60' W 089°59'0 0.0
2015-Jan-25 08:31N 29°60' W 089°59'0 0.0
2015-Jan-25 07:33N 29°60' W 089°59'0 0.0
2015-Jan-24 19:16N 29°60' W 089°59'0 0.0
2015-Jan-24 14:08N 29°60' W 089°59'0 0.0
2015-Jan-24 12:04N 29°60' W 089°59'0 0.0
2015-Jan-24 11:20N 29°60' W 089°59'0 0.0
2015-Jan-24 10:30N 29°60' W 089°59'3 1.6
2015-Jan-24 08:21N 29°58' W 090°02'2 1.8
2015-Jan-24 07:24N 29°57' W 090°00'1 1.4
2015-Jan-24 06:18N 29°56' W 089°59'0 0.0
2015-Jan-24 03:32N 29°56' W 089°59'0 0.0
2015-Jan-24 02:07N 29°56' W 089°59'0 0.0
2015-Jan-24 01:06N 29°56' W 089°59'0 0.0
2015-Jan-23 20:31N 29°56' W 089°59'0 0.0
2015-Jan-23 18:16N 29°56' W 089°59'0 0.0
2015-Jan-23 17:17N 29°56' W 089°59'0 0.0
2015-Jan-23 16:08N 29°56' W 089°59'0 0.0
2015-Jan-23 15:26N 29°56' W 089°59'0 0.0
2015-Jan-23 11:28N 29°56' W 089°59'0 0.0
2015-Jan-23 10:21N 29°56' W 089°59'0 0.0
2015-Jan-23 09:23N 29°56' W 089°59'0 0.0
2015-Jan-23 08:31N 29°56' W 089°59'1 0.1
2015-Jan-22 21:33N 29°56' W 089°60'3 3.2
2015-Jan-22 20:32N 29°56' W 090°04'4 0.8
2015-Jan-22 15:29N 29°55' W 090°08'3 3.5
2015-Jan-22 14:30N 29°55' W 090°04'0 0.5
2015-Jan-22 13:33N 29°55' W 090°04'3 3.1
2015-Jan-22 12:33N 29°54' W 090°07'0 0.0
2015-Jan-22 11:32N 29°54' W 090°07'0 0.0
2015-Jan-22 10:33N 29°54' W 090°07'0 0.1
2015-Jan-22 09:28N 29°54' W 090°07'3 2.9
2015-Jan-22 08:34N 29°55' W 090°04'3 2.5
2015-Jan-22 07:31N 29°57' W 090°02'4 3.0
2015-Jan-22 06:12N 29°55' W 089°58'41 2.5
2015-Jan-21 13:29N 29°36' W 090°40'0 0.0
2015-Jan-21 09:08N 29°36' W 090°40'3 0.7
2015-Jan-21 04:31N 29°35' W 090°43'7 3.5
2015-Jan-21 02:27N 29°32' W 090°51'4 4.1
2015-Jan-21 01:31N 29°33' W 090°55'5 3.6
2015-Jan-21 00:09N 29°37' W 090°59'2 4.1
2015-Jan-20 23:34N 29°37' W 091°02'4 3.7
2015-Jan-20 22:33N 29°39' W 091°06'0 0.3
2015-Jan-20 21:34N 29°39' W 091°06'1 0.6
2015-Jan-20 20:33N 29°39' W 091°06'0 0.5
2015-Jan-20 19:33N 29°39' W 091°06'0 0.0
2015-Jan-20 18:33N 29°39' W 091°05'0 0.0
2015-Jan-20 17:33N 29°39' W 091°06'1 0.9
2015-Jan-20 16:33N 29°38' W 091°05'0 0.1
2015-Jan-20 15:34N 29°38' W 091°06'4 4.1
2015-Jan-20 14:34N 29°41' W 091°09'3 2.6
2015-Jan-20 13:34N 29°41' W 091°12'0 0.0
2015-Jan-20 12:33N 29°41' W 091°12'0 0.0
2015-Jan-20 11:33N 29°41' W 091°12'0 0.0
2015-Jan-20 10:33N 29°41' W 091°12'1 1.0
2015-Jan-20 09:34N 29°41' W 091°11'3 3.2
2015-Jan-20 08:33N 29°40' W 091°08'5 4.5
2015-Jan-20 07:33N 29°37' W 091°03'5 4.1
2015-Jan-20 06:21N 29°35' W 090°58'55 2.6
2015-Jan-19 09:19N 29°56' W 089°60'  
2015-Jan-16 06:17N 29°51' W 091°12'3 3.3
2015-Jan-16 05:30N 29°49' W 091°10'3 3.6
2015-Jan-16 04:33N 29°45' W 091°11'3 3.2
2015-Jan-16 03:33N 29°43' W 091°13'3 3.0
2015-Jan-16 02:34N 29°40' W 091°14'4 3.8
2015-Jan-16 01:33N 29°39' W 091°18'2 2.4
2015-Jan-16 00:33N 29°38' W 091°21'7 3.2
2015-Jan-15 22:28N 29°41' W 091°28'4 3.5
2015-Jan-15 21:15N 29°43' W 091°33'  
Track history (hours):
 
Tides and Currents Weather Stations Pressure Air Temp Water Temp Dewpoint Dewpoint Depression Visibility Wind Speed Wind Dir Waves Ship Positions

Natures Way Challenger

Owner: Natures Way Marine, LLC, Theodore, AL. More information available from US FCC via Universal Licensing System and Coast Guard Vessel Documentation Center.

Last reported at 2015-Jan-25 17:32 UTC. Time now 2015-Jan-26 10:31 UTC.
Position N 30°01' W 089°53'.

Length 14 m.

Type: Towing. MMSI: 367483050.

Date/timePositionNaut miles runAvg speedWind from/ knotsBaromVisibWave heightAir tempDewpointWater temp
2015-Jan-25 17:32N 30°01' W 089°53'3 2.6
2015-Jan-25 16:32N 30°00' W 089°56'0 0.0
2015-Jan-25 15:32N 30°00' W 089°56'1 0.9
2015-Jan-25 14:19N 30°00' W 089°57'1 1.2
2015-Jan-25 13:28N 29°60' W 089°59'0 0.0
2015-Jan-25 12:33N 29°60' W 089°59'0 0.0
2015-Jan-25 11:33N 29°60' W 089°59'0 0.0
2015-Jan-25 10:32N 29°60' W 089°59'0 0.0
2015-Jan-25 09:33N 29°60' W 089°59'0 0.0
2015-Jan-25 08:31N 29°60' W 089°59'0 0.0
2015-Jan-25 07:33N 29°60' W 089°59'0 0.0
2015-Jan-24 19:16N 29°60' W 089°59'0 0.0
2015-Jan-24 14:08N 29°60' W 089°59'0 0.0
2015-Jan-24 12:04N 29°60' W 089°59'0 0.0
2015-Jan-24 11:20N 29°60' W 089°59'0 0.0
2015-Jan-24 10:30N 29°60' W 089°59'3 1.6
2015-Jan-24 08:21N 29°58' W 090°02'2 1.8
2015-Jan-24 07:24N 29°57' W 090°00'1 1.4
2015-Jan-24 06:18N 29°56' W 089°59'0 0.0
2015-Jan-24 03:32N 29°56' W 089°59'0 0.0
2015-Jan-24 02:07N 29°56' W 089°59'0 0.0
2015-Jan-24 01:06N 29°56' W 089°59'0 0.0
2015-Jan-23 20:31N 29°56' W 089°59'0 0.0
2015-Jan-23 18:16N 29°56' W 089°59'0 0.0
2015-Jan-23 17:17N 29°56' W 089°59'0 0.0
2015-Jan-23 16:08N 29°56' W 089°59'0 0.0
2015-Jan-23 15:26N 29°56' W 089°59'0 0.0
2015-Jan-23 11:28N 29°56' W 089°59'0 0.0
2015-Jan-23 10:21N 29°56' W 089°59'0 0.0
2015-Jan-23 09:23N 29°56' W 089°59'0 0.0
2015-Jan-23 08:31N 29°56' W 089°59'1 0.1
2015-Jan-22 21:33N 29°56' W 089°60'3 3.2
2015-Jan-22 20:32N 29°56' W 090°04'4 0.8
2015-Jan-22 15:29N 29°55' W 090°08'3 3.5
2015-Jan-22 14:30N 29°55' W 090°04'0 0.5
2015-Jan-22 13:33N 29°55' W 090°04'3 3.1
2015-Jan-22 12:33N 29°54' W 090°07'0 0.0
2015-Jan-22 11:32N 29°54' W 090°07'0 0.0
2015-Jan-22 10:33N 29°54' W 090°07'0 0.1
2015-Jan-22 09:28N 29°54' W 090°07'3 2.9
2015-Jan-22 08:34N 29°55' W 090°04'3 2.5
2015-Jan-22 07:31N 29°57' W 090°02'4 3.0
2015-Jan-22 06:12N 29°55' W 089°58'41 2.5
2015-Jan-21 13:29N 29°36' W 090°40'0 0.0
2015-Jan-21 09:08N 29°36' W 090°40'3 0.7
2015-Jan-21 04:31N 29°35' W 090°43'7 3.5
2015-Jan-21 02:27N 29°32' W 090°51'4 4.1
2015-Jan-21 01:31N 29°33' W 090°55'5 3.6
2015-Jan-21 00:09N 29°37' W 090°59'2 4.1
2015-Jan-20 23:34N 29°37' W 091°02'4 3.7
2015-Jan-20 22:33N 29°39' W 091°06'0 0.3
2015-Jan-20 21:34N 29°39' W 091°06'1 0.6
2015-Jan-20 20:33N 29°39' W 091°06'0 0.5
2015-Jan-20 19:33N 29°39' W 091°06'0 0.0
2015-Jan-20 18:33N 29°39' W 091°05'0 0.0
2015-Jan-20 17:33N 29°39' W 091°06'1 0.9
2015-Jan-20 16:33N 29°38' W 091°05'0 0.1
2015-Jan-20 15:34N 29°38' W 091°06'4 4.1
2015-Jan-20 14:34N 29°41' W 091°09'3 2.6
2015-Jan-20 13:34N 29°41' W 091°12'0 0.0
2015-Jan-20 12:33N 29°41' W 091°12'0 0.0
2015-Jan-20 11:33N 29°41' W 091°12'0 0.0
2015-Jan-20 10:33N 29°41' W 091°12'1 1.0
2015-Jan-20 09:34N 29°41' W 091°11'3 3.2
2015-Jan-20 08:33N 29°40' W 091°08'5 4.5
2015-Jan-20 07:33N 29°37' W 091°03'5 4.1
2015-Jan-20 06:21N 29°35' W 090°58'55 2.6
2015-Jan-19 09:19N 29°56' W 089°60'  
2015-Jan-16 06:17N 29°51' W 091°12'3 3.3
2015-Jan-16 05:30N 29°49' W 091°10'3 3.6
2015-Jan-16 04:33N 29°45' W 091°11'3 3.2
2015-Jan-16 03:33N 29°43' W 091°13'3 3.0
2015-Jan-16 02:34N 29°40' W 091°14'4 3.8
2015-Jan-16 01:33N 29°39' W 091°18'2 2.4
2015-Jan-16 00:33N 29°38' W 091°21'7 3.2
2015-Jan-15 22:28N 29°41' W 091°28'4 3.5
2015-Jan-15 21:15N 29°43' W 091°33'  

Dump ship's entire track history